sensor_id;sensor_type;location;lat;lon;timestamp;pressure;altitude;pressure_sealevel;temperature;humidity
58668;BME280;59852;43.086;25.634;2022-12-29T00:01:00;99878.97;;;4.71;68.84
58668;BME280;59852;43.086;25.634;2022-12-29T00:03:26;99877.06;;;4.78;68.85
58668;BME280;59852;43.086;25.634;2022-12-29T00:05:55;99873.44;;;4.83;69.13
58668;BME280;59852;43.086;25.634;2022-12-29T00:08:20;99883.56;;;4.61;69.98
58668;BME280;59852;43.086;25.634;2022-12-29T00:11:04;99890.88;;;4.78;69.34
58668;BME280;59852;43.086;25.634;2022-12-29T00:13:29;99880.19;;;4.89;69.05
58668;BME280;59852;43.086;25.634;2022-12-29T00:16:13;99888.63;;;4.96;68.71
58668;BME280;59852;43.086;25.634;2022-12-29T00:18:38;99897.63;;;4.84;68.89
58668;BME280;59852;43.086;25.634;2022-12-29T00:21:03;99899.78;;;4.39;70.27
58668;BME280;59852;43.086;25.634;2022-12-29T00:23:47;99900.38;;;4.17;70.97
58668;BME280;59852;43.086;25.634;2022-12-29T00:26:31;99905.31;;;3.92;70.42
58668;BME280;59852;43.086;25.634;2022-12-29T00:29:26;99900.66;;;3.72;70.74
58668;BME280;59852;43.086;25.634;2022-12-29T00:32:11;99896.69;;;3.92;69.52
58668;BME280;59852;43.086;25.634;2022-12-29T00:34:55;99897.47;;;4.28;68.26
58668;BME280;59852;43.086;25.634;2022-12-29T00:37:39;99896.31;;;3.74;69.71
58668;BME280;59852;43.086;25.634;2022-12-29T00:40:24;99892.47;;;3.54;70.15
58668;BME280;59852;43.086;25.634;2022-12-29T00:43:08;99888.88;;;3.95;67.85
58668;BME280;59852;43.086;25.634;2022-12-29T00:45:52;99888.56;;;3.73;68.26
58668;BME280;59852;43.086;25.634;2022-12-29T00:48:17;99892.31;;;3.26;69.33
58668;BME280;59852;43.086;25.634;2022-12-29T00:51:02;99897.81;;;3.10;70.10
58668;BME280;59852;43.086;25.634;2022-12-29T00:53:28;99895.16;;;3.15;69.47
58668;BME280;59852;43.086;25.634;2022-12-29T00:55:53;99897.81;;;3.48;68.61
58668;BME280;59852;43.086;25.634;2022-12-29T00:58:18;99901.81;;;3.61;67.95
58668;BME280;59852;43.086;25.634;2022-12-29T01:00:44;99903.72;;;3.54;68.80
58668;BME280;59852;43.086;25.634;2022-12-29T01:03:09;99900.91;;;3.62;69.72
58668;BME280;59852;43.086;25.634;2022-12-29T01:05:37;99913.50;;;3.77;69.81
58668;BME280;59852;43.086;25.634;2022-12-29T01:08:03;99906.72;;;3.71;70.02
58668;BME280;59852;43.086;25.634;2022-12-29T01:10:28;99904.78;;;3.80;69.40
58668;BME280;59852;43.086;25.634;2022-12-29T01:12:53;99909.91;;;3.81;68.87
58668;BME280;59852;43.086;25.634;2022-12-29T01:15:19;99900.28;;;3.88;68.78
58668;BME280;59852;43.086;25.634;2022-12-29T01:17:44;99906.03;;;3.63;69.49
58668;BME280;59852;43.086;25.634;2022-12-29T01:20:10;99903.72;;;3.53;69.68
58668;BME280;59852;43.086;25.634;2022-12-29T01:22:36;99908.34;;;3.40;69.72
58668;BME280;59852;43.086;25.634;2022-12-29T01:25:01;99911.75;;;3.03;71.65
58668;BME280;59852;43.086;25.634;2022-12-29T01:27:26;99905.88;;;3.35;69.97
58668;BME280;59852;43.086;25.634;2022-12-29T01:29:52;99900.84;;;2.91;70.66
58668;BME280;59852;43.086;25.634;2022-12-29T01:32:17;99895.34;;;3.06;70.63
58668;BME280;59852;43.086;25.634;2022-12-29T01:34:42;99891.59;;;3.19;69.47
58668;BME280;59852;43.086;25.634;2022-12-29T01:37:08;99885.66;;;3.15;69.63
58668;BME280;59852;43.086;25.634;2022-12-29T01:39:33;99881.03;;;3.28;69.57
58668;BME280;59852;43.086;25.634;2022-12-29T01:41:59;99879.34;;;3.27;69.20
58668;BME280;59852;43.086;25.634;2022-12-29T01:49:52;99874.25;;;3.23;70.47
58668;BME280;59852;43.086;25.634;2022-12-29T01:52:18;99867.19;;;3.31;69.83
58668;BME280;59852;43.086;25.634;2022-12-29T01:54:44;99872.13;;;3.40;69.43
58668;BME280;59852;43.086;25.634;2022-12-29T01:57:13;99864.59;;;3.31;69.01
58668;BME280;59852;43.086;25.634;2022-12-29T01:59:43;99870.41;;;3.05;69.95
58668;BME280;59852;43.086;25.634;2022-12-29T02:02:10;99874.81;;;3.37;68.92
58668;BME280;59852;43.086;25.634;2022-12-29T02:04:37;99863.22;;;3.52;67.79
58668;BME280;59852;43.086;25.634;2022-12-29T02:07:07;99869.06;;;3.60;68.47
58668;BME280;59852;43.086;25.634;2022-12-29T02:09:34;99861.56;;;3.49;69.33
58668;BME280;59852;43.086;25.634;2022-12-29T02:12:00;99861.16;;;3.30;70.38
58668;BME280;59852;43.086;25.634;2022-12-29T02:14:25;99855.44;;;3.17;70.53
58668;BME280;59852;43.086;25.634;2022-12-29T02:19:27;99844.75;;;3.31;70.00
58668;BME280;59852;43.086;25.634;2022-12-29T02:24:59;99847.50;;;3.25;70.11
58668;BME280;59852;43.086;25.634;2022-12-29T02:35:14;99828.00;;;3.12;70.27
58668;BME280;59852;43.086;25.634;2022-12-29T02:38:09;99825.53;;;3.41;69.21
58668;BME280;59852;43.086;25.634;2022-12-29T02:40:38;99831.13;;;3.26;69.37
58668;BME280;59852;43.086;25.634;2022-12-29T02:45:36;99817.56;;;3.16;70.03
58668;BME280;59852;43.086;25.634;2022-12-29T02:48:06;99822.34;;;2.95;70.75
58668;BME280;59852;43.086;25.634;2022-12-29T02:50:39;99823.03;;;3.03;71.05
58668;BME280;59852;43.086;25.634;2022-12-29T02:53:09;99816.38;;;3.64;69.19
58668;BME280;59852;43.086;25.634;2022-12-29T02:55:36;99814.75;;;3.60;69.07
58668;BME280;59852;43.086;25.634;2022-12-29T03:00:48;99810.31;;;3.65;69.46
58668;BME280;59852;43.086;25.634;2022-12-29T03:11:08;99812.34;;;3.52;70.03
58668;BME280;59852;43.086;25.634;2022-12-29T03:13:59;99803.28;;;3.36;70.38
58668;BME280;59852;43.086;25.634;2022-12-29T03:16:47;99816.72;;;3.50;70.14
58668;BME280;59852;43.086;25.634;2022-12-29T03:19:24;99811.59;;;3.49;69.96
58668;BME280;59852;43.086;25.634;2022-12-29T03:21:58;99811.31;;;3.59;69.63
58668;BME280;59852;43.086;25.634;2022-12-29T03:24:44;99814.13;;;3.50;69.74
58668;BME280;59852;43.086;25.634;2022-12-29T03:27:13;99818.09;;;3.63;69.45
58668;BME280;59852;43.086;25.634;2022-12-29T03:29:41;99813.00;;;3.60;69.57
58668;BME280;59852;43.086;25.634;2022-12-29T03:32:08;99810.88;;;3.42;69.85
58668;BME280;59852;43.086;25.634;2022-12-29T03:34:34;99810.06;;;3.40;70.01
58668;BME280;59852;43.086;25.634;2022-12-29T03:37:08;99820.09;;;3.52;70.09
58668;BME280;59852;43.086;25.634;2022-12-29T03:39:35;99820.19;;;3.49;69.88
58668;BME280;59852;43.086;25.634;2022-12-29T03:42:01;99809.19;;;3.75;69.30
58668;BME280;59852;43.086;25.634;2022-12-29T03:44:38;99814.13;;;3.83;69.59
58668;BME280;59852;43.086;25.634;2022-12-29T03:47:05;99809.19;;;4.06;70.82
58668;BME280;59852;43.086;25.634;2022-12-29T03:49:31;99807.25;;;4.44;70.21
58668;BME280;59852;43.086;25.634;2022-12-29T03:51:56;99811.34;;;4.21;70.04
58668;BME280;59852;43.086;25.634;2022-12-29T03:54:21;99803.13;;;4.07;69.87
58668;BME280;59852;43.086;25.634;2022-12-29T03:56:47;99812.22;;;3.89;69.54
58668;BME280;59852;43.086;25.634;2022-12-29T03:59:12;99811.28;;;3.92;69.37
58668;BME280;59852;43.086;25.634;2022-12-29T04:01:37;99805.06;;;3.99;69.22
58668;BME280;59852;43.086;25.634;2022-12-29T04:04:03;99801.78;;;3.94;69.88
58668;BME280;59852;43.086;25.634;2022-12-29T04:06:28;99810.44;;;3.91;70.77
58668;BME280;59852;43.086;25.634;2022-12-29T04:08:54;99805.66;;;4.09;70.10
58668;BME280;59852;43.086;25.634;2022-12-29T04:11:19;99805.22;;;3.93;70.34
58668;BME280;59852;43.086;25.634;2022-12-29T04:13:44;99806.22;;;3.89;72.53
58668;BME280;59852;43.086;25.634;2022-12-29T04:16:10;99810.69;;;4.15;71.84
58668;BME280;59852;43.086;25.634;2022-12-29T04:18:35;99804.81;;;4.08;71.84
58668;BME280;59852;43.086;25.634;2022-12-29T04:21:00;99800.53;;;4.07;72.22
58668;BME280;59852;43.086;25.634;2022-12-29T04:23:27;99795.53;;;4.30;71.46
58668;BME280;59852;43.086;25.634;2022-12-29T04:25:53;99807.06;;;3.89;72.04
58668;BME280;59852;43.086;25.634;2022-12-29T04:28:18;99812.38;;;3.83;72.67
58668;BME280;59852;43.086;25.634;2022-12-29T04:30:44;99817.19;;;3.66;72.57
58668;BME280;59852;43.086;25.634;2022-12-29T04:33:09;99821.69;;;3.58;72.49
58668;BME280;59852;43.086;25.634;2022-12-29T04:35:35;99820.66;;;3.65;72.50
58668;BME280;59852;43.086;25.634;2022-12-29T04:38:00;99825.09;;;3.60;72.74
58668;BME280;59852;43.086;25.634;2022-12-29T04:40:26;99818.88;;;3.67;72.34
58668;BME280;59852;43.086;25.634;2022-12-29T04:42:51;99820.53;;;3.69;72.60
58668;BME280;59852;43.086;25.634;2022-12-29T04:45:17;99831.72;;;3.70;72.26
58668;BME280;59852;43.086;25.634;2022-12-29T04:47:42;99824.84;;;3.69;72.23
58668;BME280;59852;43.086;25.634;2022-12-29T04:50:08;99826.78;;;3.61;73.20
58668;BME280;59852;43.086;25.634;2022-12-29T04:52:33;99831.56;;;3.76;72.78
58668;BME280;59852;43.086;25.634;2022-12-29T04:54:59;99831.41;;;3.12;74.85
58668;BME280;59852;43.086;25.634;2022-12-29T04:57:24;99831.50;;;3.45;72.42
58668;BME280;59852;43.086;25.634;2022-12-29T04:59:49;99824.38;;;3.55;71.59
58668;BME280;59852;43.086;25.634;2022-12-29T05:02:15;99827.91;;;3.16;71.95
58668;BME280;59852;43.086;25.634;2022-12-29T05:04:41;99830.09;;;3.32;71.85
58668;BME280;59852;43.086;25.634;2022-12-29T05:07:06;99832.81;;;3.27;72.34
58668;BME280;59852;43.086;25.634;2022-12-29T05:09:31;99833.97;;;3.15;73.53
58668;BME280;59852;43.086;25.634;2022-12-29T05:11:57;99836.88;;;3.37;72.39
58668;BME280;59852;43.086;25.634;2022-12-29T05:14:22;99835.31;;;3.30;74.09
58668;BME280;59852;43.086;25.634;2022-12-29T05:16:47;99841.41;;;3.62;73.51
58668;BME280;59852;43.086;25.634;2022-12-29T05:19:12;99843.34;;;3.54;73.92
58668;BME280;59852;43.086;25.634;2022-12-29T05:21:38;99844.72;;;3.34;73.45
58668;BME280;59852;43.086;25.634;2022-12-29T05:24:03;99839.44;;;3.37;72.30
58668;BME280;59852;43.086;25.634;2022-12-29T05:26:29;99845.16;;;3.50;72.31
58668;BME280;59852;43.086;25.634;2022-12-29T05:28:54;99844.72;;;3.34;73.24
58668;BME280;59852;43.086;25.634;2022-12-29T05:31:19;99847.78;;;3.13;74.10
58668;BME280;59852;43.086;25.634;2022-12-29T05:33:45;99847.25;;;2.99;74.43
58668;BME280;59852;43.086;25.634;2022-12-29T05:36:10;99850.22;;;2.82;74.52
58668;BME280;59852;43.086;25.634;2022-12-29T05:38:36;99848.59;;;2.78;74.67
58668;BME280;59852;43.086;25.634;2022-12-29T05:41:01;99851.03;;;2.84;73.50
58668;BME280;59852;43.086;25.634;2022-12-29T05:43:27;99852.22;;;2.69;73.40
58668;BME280;59852;43.086;25.634;2022-12-29T05:45:52;99863.91;;;2.47;73.72
58668;BME280;59852;43.086;25.634;2022-12-29T05:48:18;99863.38;;;2.71;72.93
58668;BME280;59852;43.086;25.634;2022-12-29T05:50:50;99867.44;;;2.81;72.79
58668;BME280;59852;43.086;25.634;2022-12-29T05:53:16;99870.25;;;2.30;74.18
58668;BME280;59852;43.086;25.634;2022-12-29T05:55:41;99864.44;;;2.61;73.78
58668;BME280;59852;43.086;25.634;2022-12-29T05:58:07;99866.81;;;2.72;72.93
58668;BME280;59852;43.086;25.634;2022-12-29T06:00:32;99880.41;;;2.38;73.38
58668;BME280;59852;43.086;25.634;2022-12-29T06:02:57;99875.56;;;2.66;73.24
58668;BME280;59852;43.086;25.634;2022-12-29T06:05:23;99873.94;;;2.61;73.09
58668;BME280;59852;43.086;25.634;2022-12-29T06:07:48;99880.09;;;2.53;73.40
58668;BME280;59852;43.086;25.634;2022-12-29T06:10:13;99883.13;;;2.74;72.64
58668;BME280;59852;43.086;25.634;2022-12-29T06:12:39;99883.22;;;2.69;71.92
58668;BME280;59852;43.086;25.634;2022-12-29T06:15:04;99882.38;;;2.69;72.01
58668;BME280;59852;43.086;25.634;2022-12-29T06:17:30;99885.69;;;2.74;72.47
58668;BME280;59852;43.086;25.634;2022-12-29T06:19:55;99876.63;;;2.95;71.57
58668;BME280;59852;43.086;25.634;2022-12-29T06:22:21;99874.72;;;3.03;71.17
58668;BME280;59852;43.086;25.634;2022-12-29T06:24:46;99880.44;;;3.17;70.93
58668;BME280;59852;43.086;25.634;2022-12-29T06:27:11;99883.56;;;2.52;72.37
58668;BME280;59852;43.086;25.634;2022-12-29T06:29:37;99886.03;;;2.14;73.67
58668;BME280;59852;43.086;25.634;2022-12-29T06:32:04;99880.69;;;3.42;70.20
58668;BME280;59852;43.086;25.634;2022-12-29T06:34:30;99874.66;;;7.01;57.35
58668;BME280;59852;43.086;25.634;2022-12-29T06:36:55;99884.13;;;5.02;63.09
58668;BME280;59852;43.086;25.634;2022-12-29T06:39:20;99883.88;;;4.82;63.84
58668;BME280;59852;43.086;25.634;2022-12-29T06:41:46;99892.41;;;4.25;66.44
58668;BME280;59852;43.086;25.634;2022-12-29T06:44:11;99886.19;;;3.98;67.54
58668;BME280;59852;43.086;25.634;2022-12-29T06:46:36;99888.47;;;4.10;67.34
58668;BME280;59852;43.086;25.634;2022-12-29T06:49:02;99891.91;;;4.42;66.13
58668;BME280;59852;43.086;25.634;2022-12-29T06:51:27;99884.00;;;3.83;67.78
58668;BME280;59852;43.086;25.634;2022-12-29T06:53:52;99895.47;;;3.38;70.18
58668;BME280;59852;43.086;25.634;2022-12-29T06:56:18;99887.31;;;3.54;69.56
58668;BME280;59852;43.086;25.634;2022-12-29T06:58:43;99892.56;;;3.86;67.54
58668;BME280;59852;43.086;25.634;2022-12-29T07:01:08;99897.63;;;3.89;68.02
58668;BME280;59852;43.086;25.634;2022-12-29T07:03:34;99893.34;;;4.52;65.75
58668;BME280;59852;43.086;25.634;2022-12-29T07:06:00;99891.66;;;7.53;57.02
58668;BME280;59852;43.086;25.634;2022-12-29T07:08:25;99883.69;;;12.25;43.76
58668;BME280;59852;43.086;25.634;2022-12-29T07:10:50;99874.50;;;14.10;38.74
58668;BME280;59852;43.086;25.634;2022-12-29T07:13:16;99874.59;;;15.21;36.26
58668;BME280;59852;43.086;25.634;2022-12-29T07:15:41;99874.16;;;15.75;34.74
58668;BME280;59852;43.086;25.634;2022-12-29T07:18:07;99879.56;;;16.31;33.60
58668;BME280;59852;43.086;25.634;2022-12-29T07:20:32;99876.91;;;16.20;33.76
58668;BME280;59852;43.086;25.634;2022-12-29T07:22:58;99873.28;;;15.98;33.81
58668;BME280;59852;43.086;25.634;2022-12-29T07:25:23;99868.34;;;16.74;32.87
58668;BME280;59852;43.086;25.634;2022-12-29T07:27:49;99868.81;;;17.01;32.33
58668;BME280;59852;43.086;25.634;2022-12-29T07:30:14;99872.66;;;16.75;32.45
58668;BME280;59852;43.086;25.634;2022-12-29T07:32:39;99867.22;;;17.85;30.58
58668;BME280;59852;43.086;25.634;2022-12-29T07:35:05;99865.41;;;18.06;30.38
58668;BME280;59852;43.086;25.634;2022-12-29T07:37:31;99870.56;;;17.87;30.65
58668;BME280;59852;43.086;25.634;2022-12-29T07:39:56;99866.69;;;17.70;30.96
58668;BME280;59852;43.086;25.634;2022-12-29T07:42:22;99871.81;;;18.55;30.18
58668;BME280;59852;43.086;25.634;2022-12-29T07:44:47;99872.81;;;18.95;29.23
58668;BME280;59852;43.086;25.634;2022-12-29T07:47:12;99874.75;;;18.83;29.63
58668;BME280;59852;43.086;25.634;2022-12-29T07:49:38;99865.53;;;17.09;32.36
58668;BME280;59852;43.086;25.634;2022-12-29T07:52:03;99869.88;;;14.13;37.24
58668;BME280;59852;43.086;25.634;2022-12-29T07:54:28;99878.25;;;13.80;39.54
58668;BME280;59852;43.086;25.634;2022-12-29T07:56:54;99879.03;;;15.68;35.36
58668;BME280;59852;43.086;25.634;2022-12-29T07:59:19;99881.00;;;16.13;35.02
58668;BME280;59852;43.086;25.634;2022-12-29T08:01:45;99877.91;;;14.50;37.96
58668;BME280;59852;43.086;25.634;2022-12-29T08:04:10;99881.22;;;16.21;34.87
58668;BME280;59852;43.086;25.634;2022-12-29T08:06:35;99874.50;;;17.29;32.86
58668;BME280;59852;43.086;25.634;2022-12-29T08:09:02;99874.00;;;19.21;29.58
58668;BME280;59852;43.086;25.634;2022-12-29T08:11:28;99881.06;;;19.99;28.34
58668;BME280;59852;43.086;25.634;2022-12-29T08:13:53;99881.88;;;20.19;27.42
58668;BME280;59852;43.086;25.634;2022-12-29T08:16:18;99880.09;;;19.91;27.87
58668;BME280;59852;43.086;25.634;2022-12-29T08:18:44;99883.13;;;20.15;27.48
58668;BME280;59852;43.086;25.634;2022-12-29T08:21:09;99879.56;;;20.53;27.48
58668;BME280;59852;43.086;25.634;2022-12-29T08:23:34;99871.34;;;19.11;29.54
58668;BME280;59852;43.086;25.634;2022-12-29T08:26:00;99881.06;;;12.68;41.29
58668;BME280;59852;43.086;25.634;2022-12-29T08:28:26;99885.28;;;9.00;51.13
58668;BME280;59852;43.086;25.634;2022-12-29T08:30:52;99891.69;;;8.55;53.59
58668;BME280;59852;43.086;25.634;2022-12-29T08:33:17;99885.56;;;8.75;53.62
58668;BME280;59852;43.086;25.634;2022-12-29T08:35:43;99887.56;;;8.88;53.60
58668;BME280;59852;43.086;25.634;2022-12-29T08:38:08;99890.41;;;8.04;56.44
58668;BME280;59852;43.086;25.634;2022-12-29T08:40:33;99875.63;;;8.64;55.01
58668;BME280;59852;43.086;25.634;2022-12-29T08:42:59;99882.47;;;8.27;56.03
58668;BME280;59852;43.086;25.634;2022-12-29T08:45:24;99882.47;;;7.87;57.45
58668;BME280;59852;43.086;25.634;2022-12-29T08:47:49;99879.28;;;8.00;56.60
58668;BME280;59852;43.086;25.634;2022-12-29T08:50:15;99868.06;;;8.39;56.74
58668;BME280;59852;43.086;25.634;2022-12-29T08:52:40;99871.59;;;7.77;58.52
58668;BME280;59852;43.086;25.634;2022-12-29T08:55:05;99873.34;;;8.38;56.46
58668;BME280;59852;43.086;25.634;2022-12-29T08:57:31;99866.13;;;8.82;56.08
58668;BME280;59852;43.086;25.634;2022-12-29T08:59:56;99858.56;;;8.95;55.22
58668;BME280;59852;43.086;25.634;2022-12-29T09:02:21;99858.28;;;8.82;56.22
58668;BME280;59852;43.086;25.634;2022-12-29T09:04:47;99849.84;;;8.96;55.78
58668;BME280;59852;43.086;25.634;2022-12-29T09:07:12;99859.22;;;8.02;58.60
58668;BME280;59852;43.086;25.634;2022-12-29T09:09:38;99856.41;;;8.27;58.18
58668;BME280;59852;43.086;25.634;2022-12-29T09:12:03;99854.72;;;8.26;58.18
58668;BME280;59852;43.086;25.634;2022-12-29T09:14:29;99851.22;;;8.07;58.88
58668;BME280;59852;43.086;25.634;2022-12-29T09:16:54;99846.38;;;8.39;58.40
58668;BME280;59852;43.086;25.634;2022-12-29T09:19:38;99844.81;;;8.53;58.07
58668;BME280;59852;43.086;25.634;2022-12-29T09:22:03;99848.22;;;8.16;58.76
58668;BME280;59852;43.086;25.634;2022-12-29T09:24:28;99839.91;;;8.47;58.51
58668;BME280;59852;43.086;25.634;2022-12-29T09:26:54;99838.00;;;8.88;57.03
58668;BME280;59852;43.086;25.634;2022-12-29T09:29:19;99836.94;;;8.36;58.37
58668;BME280;59852;43.086;25.634;2022-12-29T09:31:44;99833.91;;;8.25;58.42
58668;BME280;59852;43.086;25.634;2022-12-29T09:34:10;99832.19;;;8.44;58.26
58668;BME280;59852;43.086;25.634;2022-12-29T09:36:35;99821.00;;;8.80;57.66
58668;BME280;59852;43.086;25.634;2022-12-29T09:39:00;99813.31;;;8.96;57.17
58668;BME280;59852;43.086;25.634;2022-12-29T09:46:29;99808.94;;;8.96;57.22
58668;BME280;59852;43.086;25.634;2022-12-29T09:49:05;99803.81;;;9.12;56.72
58668;BME280;59852;43.086;25.634;2022-12-29T09:51:32;99806.41;;;9.12;56.42
58668;BME280;59852;43.086;25.634;2022-12-29T09:54:02;99795.22;;;9.10;57.05
58668;BME280;59852;43.086;25.634;2022-12-29T09:56:29;99783.28;;;9.04;56.71
58668;BME280;59852;43.086;25.634;2022-12-29T09:58:59;99784.47;;;9.33;55.73
58668;BME280;59852;43.086;25.634;2022-12-29T10:02:29;99775.94;;;8.95;57.21
58668;BME280;59852;43.086;25.634;2022-12-29T10:04:19;99778.50;;;9.31;56.19
58668;BME280;59852;43.086;25.634;2022-12-29T10:06:46;99771.97;;;9.40;56.24
58668;BME280;59852;43.086;25.634;2022-12-29T10:19:44;99768.41;;;9.24;56.03
58668;BME280;59852;43.086;25.634;2022-12-29T10:24:37;99768.75;;;9.52;55.26
58668;BME280;59852;43.086;25.634;2022-12-29T10:27:03;99770.41;;;9.53;55.17
58668;BME280;59852;43.086;25.634;2022-12-29T10:29:35;99764.31;;;9.54;55.28
58668;BME280;59852;43.086;25.634;2022-12-29T10:32:04;99763.13;;;9.77;54.84
58668;BME280;59852;43.086;25.634;2022-12-29T10:34:37;99749.41;;;9.89;55.03
58668;BME280;59852;43.086;25.634;2022-12-29T10:37:05;99746.50;;;9.78;55.00
58668;BME280;59852;43.086;25.634;2022-12-29T10:39:49;99751.25;;;9.54;54.90
58668;BME280;59852;43.086;25.634;2022-12-29T10:44:41;99743.59;;;9.84;55.26
58668;BME280;59852;43.086;25.634;2022-12-29T10:47:08;99751.44;;;9.84;55.09
58668;BME280;59852;43.086;25.634;2022-12-29T10:49:40;99749.56;;;9.86;54.40
58668;BME280;59852;43.086;25.634;2022-12-29T10:52:07;99744.38;;;10.02;54.53
58668;BME280;59852;43.086;25.634;2022-12-29T10:57:28;99741.34;;;10.10;53.97
58668;BME280;59852;43.086;25.634;2022-12-29T10:59:56;99736.66;;;10.16;53.81
58668;BME280;59852;43.086;25.634;2022-12-29T11:05:10;99735.72;;;10.17;54.37
58668;BME280;59852;43.086;25.634;2022-12-29T11:07:37;99730.78;;;10.28;54.37
58668;BME280;59852;43.086;25.634;2022-12-29T11:10:17;99728.44;;;10.24;53.76
58668;BME280;59852;43.086;25.634;2022-12-29T11:13:00;99724.13;;;10.23;53.57
58668;BME280;59852;43.086;25.634;2022-12-29T11:15:25;99727.34;;;10.28;53.02
58668;BME280;59852;43.086;25.634;2022-12-29T11:17:52;99722.25;;;10.41;52.50
58668;BME280;59852;43.086;25.634;2022-12-29T11:22:44;99713.44;;;10.43;51.28
58668;BME280;59852;43.086;25.634;2022-12-29T11:25:10;99718.41;;;10.48;50.87
58668;BME280;59852;43.086;25.634;2022-12-29T11:27:37;99716.38;;;10.53;51.13
58668;BME280;59852;43.086;25.634;2022-12-29T11:30:03;99712.66;;;10.57;51.09
58668;BME280;59852;43.086;25.634;2022-12-29T11:32:50;99707.75;;;10.51;50.91
58668;BME280;59852;43.086;25.634;2022-12-29T11:35:29;99711.53;;;10.61;50.99
58668;BME280;59852;43.086;25.634;2022-12-29T11:37:55;99703.13;;;10.56;51.60
58668;BME280;59852;43.086;25.634;2022-12-29T11:40:22;99704.28;;;10.50;51.30
58668;BME280;59852;43.086;25.634;2022-12-29T11:42:48;99697.03;;;10.55;51.32
58668;BME280;59852;43.086;25.634;2022-12-29T11:47:42;99701.78;;;10.49;51.75
58668;BME280;59852;43.086;25.634;2022-12-29T11:50:15;99694.94;;;10.46;51.39
58668;BME280;59852;43.086;25.634;2022-12-29T11:52:41;99688.59;;;10.50;51.76
58668;BME280;59852;43.086;25.634;2022-12-29T11:55:13;99691.31;;;10.49;52.82
58668;BME280;59852;43.086;25.634;2022-12-29T11:57:41;99684.06;;;10.54;53.06
58668;BME280;59852;43.086;25.634;2022-12-29T12:00:14;99688.41;;;10.69;53.49
58668;BME280;59852;43.086;25.634;2022-12-29T12:05:28;99683.28;;;10.68;53.55
58668;BME280;59852;43.086;25.634;2022-12-29T12:10:35;99680.22;;;10.75;54.19
58668;BME280;59852;43.086;25.634;2022-12-29T12:15:50;99678.34;;;10.77;53.35
58668;BME280;59852;43.086;25.634;2022-12-29T12:19:00;99667.13;;;10.75;53.49
58668;BME280;59852;43.086;25.634;2022-12-29T12:21:09;99664.97;;;10.68;53.27
58668;BME280;59852;43.086;25.634;2022-12-29T12:31:56;99662.44;;;10.66;54.38
58668;BME280;59852;43.086;25.634;2022-12-29T12:34:03;99661.50;;;10.67;54.20
58668;BME280;59852;43.086;25.634;2022-12-29T12:39:16;99658.44;;;10.75;53.80
58668;BME280;59852;43.086;25.634;2022-12-29T12:41:50;99663.50;;;10.78;54.15
58668;BME280;59852;43.086;25.634;2022-12-29T12:44:27;99651.75;;;10.85;53.96
58668;BME280;59852;43.086;25.634;2022-12-29T12:52:26;99658.84;;;10.83;53.62
58668;BME280;59852;43.086;25.634;2022-12-29T12:55:23;99658.91;;;10.81;53.61
58668;BME280;59852;43.086;25.634;2022-12-29T12:58:04;99660.44;;;10.85;53.48
58668;BME280;59852;43.086;25.634;2022-12-29T13:00:34;99668.00;;;10.90;53.60
58668;BME280;59852;43.086;25.634;2022-12-29T13:03:24;99663.72;;;10.89;53.02
58668;BME280;59852;43.086;25.634;2022-12-29T13:13:52;99664.97;;;10.52;54.97
58668;BME280;59852;43.086;25.634;2022-12-29T13:18:52;99666.25;;;10.45;55.44
58668;BME280;59852;43.086;25.634;2022-12-29T13:21:34;99672.16;;;10.48;55.69
58668;BME280;59852;43.086;25.634;2022-12-29T13:24:15;99671.25;;;10.33;56.41
58668;BME280;59852;43.086;25.634;2022-12-29T13:26:42;99676.19;;;10.22;57.04
58668;BME280;59852;43.086;25.634;2022-12-29T13:34:14;99670.78;;;9.94;57.29
58668;BME280;59852;43.086;25.634;2022-12-29T13:36:46;99671.63;;;9.94;57.42
58668;BME280;59852;43.086;25.634;2022-12-29T13:42:11;99670.50;;;9.83;57.63
58668;BME280;59852;43.086;25.634;2022-12-29T13:44:43;99670.44;;;9.84;58.45
58668;BME280;59852;43.086;25.634;2022-12-29T13:47:24;99676.41;;;9.86;57.64
58668;BME280;59852;43.086;25.634;2022-12-29T13:49:51;99678.94;;;9.88;57.24
58668;BME280;59852;43.086;25.634;2022-12-29T13:59:59;99680.88;;;9.51;59.80
58668;BME280;59852;43.086;25.634;2022-12-29T14:05:03;99682.06;;;9.45;60.04
58668;BME280;59852;43.086;25.634;2022-12-29T14:07:29;99677.81;;;9.43;60.02
58668;BME280;59852;43.086;25.634;2022-12-29T14:10:00;99682.06;;;9.45;60.03
58668;BME280;59852;43.086;25.634;2022-12-29T14:12:32;99683.13;;;9.41;60.27
58668;BME280;59852;43.086;25.634;2022-12-29T14:15:20;99682.91;;;9.29;60.88
58668;BME280;59852;43.086;25.634;2022-12-29T14:17:59;99683.38;;;9.37;60.75
58668;BME280;59852;43.086;25.634;2022-12-29T14:20:26;99685.97;;;9.37;60.86
58668;BME280;59852;43.086;25.634;2022-12-29T14:22:56;99687.38;;;9.27;61.49
58668;BME280;59852;43.086;25.634;2022-12-29T14:28:15;99694.94;;;9.31;61.45
58668;BME280;59852;43.086;25.634;2022-12-29T14:30:47;99693.06;;;9.17;62.04
58668;BME280;59852;43.086;25.634;2022-12-29T14:33:14;99701.41;;;9.24;61.74
58668;BME280;59852;43.086;25.634;2022-12-29T14:35:43;99694.75;;;9.18;62.00
58668;BME280;59852;43.086;25.634;2022-12-29T14:38:14;99697.09;;;9.23;61.99
58668;BME280;59852;43.086;25.634;2022-12-29T14:40:41;99700.16;;;9.14;62.21
58668;BME280;59852;43.086;25.634;2022-12-29T14:43:11;99701.41;;;9.07;63.16
58668;BME280;59852;43.086;25.634;2022-12-29T14:45:38;99708.94;;;8.96;63.03
58668;BME280;59852;43.086;25.634;2022-12-29T14:48:21;99705.72;;;9.08;62.34
58668;BME280;59852;43.086;25.634;2022-12-29T14:50:53;99707.47;;;9.07;62.69
58668;BME280;59852;43.086;25.634;2022-12-29T14:56:02;99706.84;;;9.02;63.09
58668;BME280;59852;43.086;25.634;2022-12-29T14:58:32;99704.09;;;8.88;63.29
58668;BME280;59852;43.086;25.634;2022-12-29T15:01:02;99700.94;;;8.99;63.12
58668;BME280;59852;43.086;25.634;2022-12-29T15:06:07;99709.91;;;8.93;63.13
58668;BME280;59852;43.086;25.634;2022-12-29T15:08:42;99713.00;;;9.01;62.86